sensor_id;sensor_type;location;lat;lon;timestamp;temperature;humidity
4097;DHT22;2062;50.694;7.246;2024-02-04T00:00:18;10.10;70.10
4097;DHT22;2062;50.694;7.246;2024-02-04T00:02:45;10.20;70.00
4097;DHT22;2062;50.694;7.246;2024-02-04T00:05:12;10.10;70.10
4097;DHT22;2062;50.694;7.246;2024-02-04T00:07:38;10.20;70.00
4097;DHT22;2062;50.694;7.246;2024-02-04T00:10:06;10.10;70.10
4097;DHT22;2062;50.694;7.246;2024-02-04T00:12:32;10.10;70.30
4097;DHT22;2062;50.694;7.246;2024-02-04T00:14:59;10.10;70.10
4097;DHT22;2062;50.694;7.246;2024-02-04T00:17:27;10.10;70.10
4097;DHT22;2062;50.694;7.246;2024-02-04T00:19:56;10.10;70.20
4097;DHT22;2062;50.694;7.246;2024-02-04T00:22:23;10.10;70.30
4097;DHT22;2062;50.694;7.246;2024-02-04T00:24:50;10.10;70.30
4097;DHT22;2062;50.694;7.246;2024-02-04T00:27:17;10.10;70.40
4097;DHT22;2062;50.694;7.246;2024-02-04T00:29:44;10.00;70.30
4097;DHT22;2062;50.694;7.246;2024-02-04T00:32:10;10.10;70.40
4097;DHT22;2062;50.694;7.246;2024-02-04T00:34:38;10.10;70.50
4097;DHT22;2062;50.694;7.246;2024-02-04T00:37:05;10.00;70.50
4097;DHT22;2062;50.694;7.246;2024-02-04T00:39:32;10.00;70.40
4097;DHT22;2062;50.694;7.246;2024-02-04T00:41:59;10.00;70.70
4097;DHT22;2062;50.694;7.246;2024-02-04T00:44:27;10.00;70.60
4097;DHT22;2062;50.694;7.246;2024-02-04T00:46:53;10.00;70.50
4097;DHT22;2062;50.694;7.246;2024-02-04T00:49:20;10.00;70.60
4097;DHT22;2062;50.694;7.246;2024-02-04T00:51:48;10.00;70.60
4097;DHT22;2062;50.694;7.246;2024-02-04T00:54:15;10.00;70.70
4097;DHT22;2062;50.694;7.246;2024-02-04T00:56:42;10.00;70.90
4097;DHT22;2062;50.694;7.246;2024-02-04T00:59:09;10.00;71.10
4097;DHT22;2062;50.694;7.246;2024-02-04T01:01:35;10.00;70.90
4097;DHT22;2062;50.694;7.246;2024-02-04T01:04:02;9.90;70.90
4097;DHT22;2062;50.694;7.246;2024-02-04T01:06:29;9.90;71.00
4097;DHT22;2062;50.694;7.246;2024-02-04T01:08:58;10.00;71.10
4097;DHT22;2062;50.694;7.246;2024-02-04T01:11:24;10.00;71.20
4097;DHT22;2062;50.694;7.246;2024-02-04T01:13:51;9.90;71.30
4097;DHT22;2062;50.694;7.246;2024-02-04T01:16:18;9.90;71.10
4097;DHT22;2062;50.694;7.246;2024-02-04T01:18:45;9.90;71.20
4097;DHT22;2062;50.694;7.246;2024-02-04T01:21:11;9.90;71.20
4097;DHT22;2062;50.694;7.246;2024-02-04T01:23:38;9.90;71.40
4097;DHT22;2062;50.694;7.246;2024-02-04T01:26:06;9.90;71.40
4097;DHT22;2062;50.694;7.246;2024-02-04T01:28:33;9.90;71.30
4097;DHT22;2062;50.694;7.246;2024-02-04T01:31:01;9.90;71.50
4097;DHT22;2062;50.694;7.246;2024-02-04T01:33:27;9.90;71.50
4097;DHT22;2062;50.694;7.246;2024-02-04T01:35:54;9.90;71.40
4097;DHT22;2062;50.694;7.246;2024-02-04T01:38:21;9.90;71.60
4097;DHT22;2062;50.694;7.246;2024-02-04T01:40:48;9.90;71.60
4097;DHT22;2062;50.694;7.246;2024-02-04T01:43:18;9.90;71.50
4097;DHT22;2062;50.694;7.246;2024-02-04T01:45:47;9.90;71.80
4097;DHT22;2062;50.694;7.246;2024-02-04T01:48:14;9.90;72.10
4097;DHT22;2062;50.694;7.246;2024-02-04T01:50:41;9.90;71.90
4097;DHT22;2062;50.694;7.246;2024-02-04T01:53:08;9.90;71.90
4097;DHT22;2062;50.694;7.246;2024-02-04T01:55:35;9.80;71.90
4097;DHT22;2062;50.694;7.246;2024-02-04T01:58:02;9.80;71.90
4097;DHT22;2062;50.694;7.246;2024-02-04T02:00:31;9.90;72.00
4097;DHT22;2062;50.694;7.246;2024-02-04T02:02:59;9.90;72.00
4097;DHT22;2062;50.694;7.246;2024-02-04T02:05:26;9.80;72.00
4097;DHT22;2062;50.694;7.246;2024-02-04T02:07:52;9.80;71.90
4097;DHT22;2062;50.694;7.246;2024-02-04T02:10:21;9.80;72.10
4097;DHT22;2062;50.694;7.246;2024-02-04T02:12:53;9.90;72.20
4097;DHT22;2062;50.694;7.246;2024-02-04T02:15:23;9.80;72.30
4097;DHT22;2062;50.694;7.246;2024-02-04T02:17:57;9.80;72.20
4097;DHT22;2062;50.694;7.246;2024-02-04T02:20:29;9.80;72.20
4097;DHT22;2062;50.694;7.246;2024-02-04T02:23:06;9.80;72.40
4097;DHT22;2062;50.694;7.246;2024-02-04T02:25:36;9.80;72.60
4097;DHT22;2062;50.694;7.246;2024-02-04T02:28:04;9.80;72.20
4097;DHT22;2062;50.694;7.246;2024-02-04T02:30:31;9.80;72.30
4097;DHT22;2062;50.694;7.246;2024-02-04T02:32:58;9.80;72.10
4097;DHT22;2062;50.694;7.246;2024-02-04T02:35:26;9.80;72.40
4097;DHT22;2062;50.694;7.246;2024-02-04T02:37:56;9.80;72.40
4097;DHT22;2062;50.694;7.246;2024-02-04T02:40:30;9.80;72.50
4097;DHT22;2062;50.694;7.246;2024-02-04T02:43:02;9.80;72.60
4097;DHT22;2062;50.694;7.246;2024-02-04T02:45:30;9.80;72.60
4097;DHT22;2062;50.694;7.246;2024-02-04T02:47:57;9.80;72.60
4097;DHT22;2062;50.694;7.246;2024-02-04T02:50:24;9.80;72.70
4097;DHT22;2062;50.694;7.246;2024-02-04T02:52:51;9.80;73.00
4097;DHT22;2062;50.694;7.246;2024-02-04T02:55:18;9.80;73.00
4097;DHT22;2062;50.694;7.246;2024-02-04T02:57:45;9.90;73.20
4097;DHT22;2062;50.694;7.246;2024-02-04T03:00:14;9.80;73.10
4097;DHT22;2062;50.694;7.246;2024-02-04T03:02:40;9.90;73.20
4097;DHT22;2062;50.694;7.246;2024-02-04T03:05:08;9.80;73.10
4097;DHT22;2062;50.694;7.246;2024-02-04T03:07:35;9.80;73.00
4097;DHT22;2062;50.694;7.246;2024-02-04T03:10:01;9.80;73.10
4097;DHT22;2062;50.694;7.246;2024-02-04T03:12:28;9.90;73.30
4097;DHT22;2062;50.694;7.246;2024-02-04T03:14:55;9.90;73.20
4097;DHT22;2062;50.694;7.246;2024-02-04T03:17:23;9.90;73.20
4097;DHT22;2062;50.694;7.246;2024-02-04T03:19:50;9.90;73.30
4097;DHT22;2062;50.694;7.246;2024-02-04T03:22:19;9.90;73.20
4097;DHT22;2062;50.694;7.246;2024-02-04T03:24:46;9.90;73.20
4097;DHT22;2062;50.694;7.246;2024-02-04T03:27:13;9.90;73.30
4097;DHT22;2062;50.694;7.246;2024-02-04T03:29:40;9.90;73.20
4097;DHT22;2062;50.694;7.246;2024-02-04T03:32:07;9.90;73.20
4097;DHT22;2062;50.694;7.246;2024-02-04T03:34:35;9.90;73.30
4097;DHT22;2062;50.694;7.246;2024-02-04T03:37:02;9.90;73.30
4097;DHT22;2062;50.694;7.246;2024-02-04T03:39:28;9.90;73.20
4097;DHT22;2062;50.694;7.246;2024-02-04T03:41:55;10.00;73.30
4097;DHT22;2062;50.694;7.246;2024-02-04T03:44:22;10.00;73.40
4097;DHT22;2062;50.694;7.246;2024-02-04T03:46:49;10.00;73.70
4097;DHT22;2062;50.694;7.246;2024-02-04T03:49:16;10.00;73.70
4097;DHT22;2062;50.694;7.246;2024-02-04T03:51:44;10.00;73.60
4097;DHT22;2062;50.694;7.246;2024-02-04T03:54:11;10.00;73.50
4097;DHT22;2062;50.694;7.246;2024-02-04T03:56:38;10.00;73.70
4097;DHT22;2062;50.694;7.246;2024-02-04T03:59:05;10.00;73.70
4097;DHT22;2062;50.694;7.246;2024-02-04T04:01:34;10.00;73.80
4097;DHT22;2062;50.694;7.246;2024-02-04T04:04:01;10.00;73.70
4097;DHT22;2062;50.694;7.246;2024-02-04T04:06:28;10.00;73.70
4097;DHT22;2062;50.694;7.246;2024-02-04T04:08:56;10.00;73.70
4097;DHT22;2062;50.694;7.246;2024-02-04T04:11:24;10.10;73.90
4097;DHT22;2062;50.694;7.246;2024-02-04T04:13:51;10.00;73.70
4097;DHT22;2062;50.694;7.246;2024-02-04T04:16:20;10.10;73.80
4097;DHT22;2062;50.694;7.246;2024-02-04T04:18:47;10.00;73.80
4097;DHT22;2062;50.694;7.246;2024-02-04T04:21:14;10.00;73.90
4097;DHT22;2062;50.694;7.246;2024-02-04T04:23:40;10.10;73.90
4097;DHT22;2062;50.694;7.246;2024-02-04T04:26:09;10.10;73.90
4097;DHT22;2062;50.694;7.246;2024-02-04T04:28:35;10.10;74.00
4097;DHT22;2062;50.694;7.246;2024-02-04T04:31:02;10.00;73.90
4097;DHT22;2062;50.694;7.246;2024-02-04T04:33:29;10.10;73.90
4097;DHT22;2062;50.694;7.246;2024-02-04T04:35:56;10.10;74.00
4097;DHT22;2062;50.694;7.246;2024-02-04T04:38:23;10.10;74.00
4097;DHT22;2062;50.694;7.246;2024-02-04T04:40:49;10.10;74.00
4097;DHT22;2062;50.694;7.246;2024-02-04T04:43:17;10.10;74.10
4097;DHT22;2062;50.694;7.246;2024-02-04T04:45:44;10.10;74.20
4097;DHT22;2062;50.694;7.246;2024-02-04T04:48:11;10.10;74.20
4097;DHT22;2062;50.694;7.246;2024-02-04T04:50:38;10.10;74.10
4097;DHT22;2062;50.694;7.246;2024-02-04T04:53:05;10.10;74.10
4097;DHT22;2062;50.694;7.246;2024-02-04T04:55:31;10.20;74.10
4097;DHT22;2062;50.694;7.246;2024-02-04T04:57:58;10.10;74.00
4097;DHT22;2062;50.694;7.246;2024-02-04T05:00:26;10.10;74.20
4097;DHT22;2062;50.694;7.246;2024-02-04T05:02:53;10.20;74.30
4097;DHT22;2062;50.694;7.246;2024-02-04T05:05:20;10.20;74.30
4097;DHT22;2062;50.694;7.246;2024-02-04T05:07:46;10.20;74.10
4097;DHT22;2062;50.694;7.246;2024-02-04T05:10:13;10.20;74.20
4097;DHT22;2062;50.694;7.246;2024-02-04T05:12:40;10.20;74.20
4097;DHT22;2062;50.694;7.246;2024-02-04T05:15:08;10.20;74.30
4097;DHT22;2062;50.694;7.246;2024-02-04T05:17:36;10.20;74.30
4097;DHT22;2062;50.694;7.246;2024-02-04T05:20:03;10.20;75.00
4097;DHT22;2062;50.694;7.246;2024-02-04T05:22:30;10.20;74.30
4097;DHT22;2062;50.694;7.246;2024-02-04T05:24:57;10.20;74.30
4097;DHT22;2062;50.694;7.246;2024-02-04T05:27:24;10.20;74.30
4097;DHT22;2062;50.694;7.246;2024-02-04T05:29:51;10.20;74.30
4097;DHT22;2062;50.694;7.246;2024-02-04T05:32:18;10.20;74.40
4097;DHT22;2062;50.694;7.246;2024-02-04T05:34:46;10.20;74.30
4097;DHT22;2062;50.694;7.246;2024-02-04T05:37:12;10.20;74.30
4097;DHT22;2062;50.694;7.246;2024-02-04T05:39:39;10.20;74.40
4097;DHT22;2062;50.694;7.246;2024-02-04T05:42:06;10.20;74.30
4097;DHT22;2062;50.694;7.246;2024-02-04T05:44:33;10.20;74.40
4097;DHT22;2062;50.694;7.246;2024-02-04T05:47:00;10.20;74.30
4097;DHT22;2062;50.694;7.246;2024-02-04T05:49:27;10.30;74.60
4097;DHT22;2062;50.694;7.246;2024-02-04T05:51:55;10.20;74.40
4097;DHT22;2062;50.694;7.246;2024-02-04T05:54:22;10.20;74.50
4097;DHT22;2062;50.694;7.246;2024-02-04T05:56:48;10.20;74.50
4097;DHT22;2062;50.694;7.246;2024-02-04T05:59:15;10.20;75.40
4097;DHT22;2062;50.694;7.246;2024-02-04T06:01:42;10.30;74.70
4097;DHT22;2062;50.694;7.246;2024-02-04T06:04:10;10.20;74.60
4097;DHT22;2062;50.694;7.246;2024-02-04T06:06:37;10.20;74.70
4097;DHT22;2062;50.694;7.246;2024-02-04T06:09:05;10.30;74.80
4097;DHT22;2062;50.694;7.246;2024-02-04T06:11:32;10.30;74.60
4097;DHT22;2062;50.694;7.246;2024-02-04T06:13:58;10.30;74.80
4097;DHT22;2062;50.694;7.246;2024-02-04T06:16:26;10.20;74.60
4097;DHT22;2062;50.694;7.246;2024-02-04T06:18:52;10.30;74.70
4097;DHT22;2062;50.694;7.246;2024-02-04T06:21:20;10.20;74.70
4097;DHT22;2062;50.694;7.246;2024-02-04T06:23:47;10.30;74.80
4097;DHT22;2062;50.694;7.246;2024-02-04T06:26:15;10.20;74.70
4097;DHT22;2062;50.694;7.246;2024-02-04T06:28:42;10.20;74.70
4097;DHT22;2062;50.694;7.246;2024-02-04T06:31:11;10.30;74.80
4097;DHT22;2062;50.694;7.246;2024-02-04T06:33:38;10.20;74.70
4097;DHT22;2062;50.694;7.246;2024-02-04T06:36:08;10.20;74.70
4097;DHT22;2062;50.694;7.246;2024-02-04T06:38:35;10.30;74.90
4097;DHT22;2062;50.694;7.246;2024-02-04T06:41:02;10.30;74.80
4097;DHT22;2062;50.694;7.246;2024-02-04T06:43:30;10.20;75.50
4097;DHT22;2062;50.694;7.246;2024-02-04T06:45:57;10.20;74.70
4097;DHT22;2062;50.694;7.246;2024-02-04T06:48:24;10.30;74.80
4097;DHT22;2062;50.694;7.246;2024-02-04T06:50:50;10.30;74.90
4097;DHT22;2062;50.694;7.246;2024-02-04T06:53:17;10.30;74.80
4097;DHT22;2062;50.694;7.246;2024-02-04T06:55:44;10.20;74.60
4097;DHT22;2062;50.694;7.246;2024-02-04T06:58:11;10.20;74.60
4097;DHT22;2062;50.694;7.246;2024-02-04T07:00:39;10.20;74.70
4097;DHT22;2062;50.694;7.246;2024-02-04T07:03:06;10.20;74.60
4097;DHT22;2062;50.694;7.246;2024-02-04T07:05:33;10.20;75.00
4097;DHT22;2062;50.694;7.246;2024-02-04T07:07:59;10.20;75.00
4097;DHT22;2062;50.694;7.246;2024-02-04T07:10:26;10.20;74.80
4097;DHT22;2062;50.694;7.246;2024-02-04T07:12:54;10.20;74.90
4097;DHT22;2062;50.694;7.246;2024-02-04T07:15:21;10.20;74.70
4097;DHT22;2062;50.694;7.246;2024-02-04T07:17:49;10.20;74.70
4097;DHT22;2062;50.694;7.246;2024-02-04T07:20:16;10.20;74.70
4097;DHT22;2062;50.694;7.246;2024-02-04T07:22:43;10.20;75.00
4097;DHT22;2062;50.694;7.246;2024-02-04T07:25:10;10.20;74.90
4097;DHT22;2062;50.694;7.246;2024-02-04T07:27:37;10.20;74.80
4097;DHT22;2062;50.694;7.246;2024-02-04T07:30:05;10.20;74.90
4097;DHT22;2062;50.694;7.246;2024-02-04T07:32:32;10.20;75.00
4097;DHT22;2062;50.694;7.246;2024-02-04T07:35:01;10.20;74.90
4097;DHT22;2062;50.694;7.246;2024-02-04T07:37:28;10.20;74.90
4097;DHT22;2062;50.694;7.246;2024-02-04T07:39:55;10.10;74.80
4097;DHT22;2062;50.694;7.246;2024-02-04T07:42:21;10.20;74.80
4097;DHT22;2062;50.694;7.246;2024-02-04T07:44:48;10.20;74.70
4097;DHT22;2062;50.694;7.246;2024-02-04T07:47:15;10.20;74.70
4097;DHT22;2062;50.694;7.246;2024-02-04T07:49:42;10.20;74.70
4097;DHT22;2062;50.694;7.246;2024-02-04T07:52:10;10.20;75.00
4097;DHT22;2062;50.694;7.246;2024-02-04T07:54:37;10.20;74.80
4097;DHT22;2062;50.694;7.246;2024-02-04T07:57:04;10.20;74.70
4097;DHT22;2062;50.694;7.246;2024-02-04T07:59:31;10.20;74.70
4097;DHT22;2062;50.694;7.246;2024-02-04T08:01:58;10.20;74.90
4097;DHT22;2062;50.694;7.246;2024-02-04T08:04:24;10.20;74.70
4097;DHT22;2062;50.694;7.246;2024-02-04T08:06:51;10.20;74.60
4097;DHT22;2062;50.694;7.246;2024-02-04T08:09:19;10.20;74.50
4097;DHT22;2062;50.694;7.246;2024-02-04T08:11:46;10.20;74.40
4097;DHT22;2062;50.694;7.246;2024-02-04T08:14:13;10.20;74.50
4097;DHT22;2062;50.694;7.246;2024-02-04T08:16:40;10.20;74.50
4097;DHT22;2062;50.694;7.246;2024-02-04T08:19:08;10.20;74.50
4097;DHT22;2062;50.694;7.246;2024-02-04T08:21:34;10.20;74.80
4097;DHT22;2062;50.694;7.246;2024-02-04T08:24:01;10.20;74.60
4097;DHT22;2062;50.694;7.246;2024-02-04T08:26:30;10.20;74.70
4097;DHT22;2062;50.694;7.246;2024-02-04T08:28:56;10.20;74.80
4097;DHT22;2062;50.694;7.246;2024-02-04T08:31:23;10.30;74.80
4097;DHT22;2062;50.694;7.246;2024-02-04T08:33:50;10.30;74.90
4097;DHT22;2062;50.694;7.246;2024-02-04T08:36:18;10.30;75.00
4097;DHT22;2062;50.694;7.246;2024-02-04T08:38:45;10.30;74.90
4097;DHT22;2062;50.694;7.246;2024-02-04T08:41:11;10.30;74.90
4097;DHT22;2062;50.694;7.246;2024-02-04T08:43:39;10.30;75.00
4097;DHT22;2062;50.694;7.246;2024-02-04T08:46:06;10.30;75.00
4097;DHT22;2062;50.694;7.246;2024-02-04T08:48:33;10.40;74.90
4097;DHT22;2062;50.694;7.246;2024-02-04T08:51:00;10.40;74.90
4097;DHT22;2062;50.694;7.246;2024-02-04T08:53:26;10.40;75.00
4097;DHT22;2062;50.694;7.246;2024-02-04T08:55:53;10.50;75.20
4097;DHT22;2062;50.694;7.246;2024-02-04T08:58:20;10.40;74.90
4097;DHT22;2062;50.694;7.246;2024-02-04T09:00:48;10.50;74.90
4097;DHT22;2062;50.694;7.246;2024-02-04T09:03:15;10.50;74.90
4097;DHT22;2062;50.694;7.246;2024-02-04T09:05:41;10.50;75.00
4097;DHT22;2062;50.694;7.246;2024-02-04T09:08:08;10.50;74.90
4097;DHT22;2062;50.694;7.246;2024-02-04T09:10:36;10.60;74.80
4097;DHT22;2062;50.694;7.246;2024-02-04T09:13:03;10.60;74.80
4097;DHT22;2062;50.694;7.246;2024-02-04T09:15:30;10.60;74.90
4097;DHT22;2062;50.694;7.246;2024-02-04T09:17:58;10.60;74.70
4097;DHT22;2062;50.694;7.246;2024-02-04T09:20:25;10.60;74.60
4097;DHT22;2062;50.694;7.246;2024-02-04T09:22:52;10.60;74.70
4097;DHT22;2062;50.694;7.246;2024-02-04T09:25:18;10.70;74.80
4097;DHT22;2062;50.694;7.246;2024-02-04T09:27:45;10.70;74.70
4097;DHT22;2062;50.694;7.246;2024-02-04T09:30:13;10.70;74.90
4097;DHT22;2062;50.694;7.246;2024-02-04T09:32:39;10.70;74.70
4097;DHT22;2062;50.694;7.246;2024-02-04T09:35:08;10.80;74.70
4097;DHT22;2062;50.694;7.246;2024-02-04T09:37:35;10.80;74.80
4097;DHT22;2062;50.694;7.246;2024-02-04T09:40:02;10.80;74.70
4097;DHT22;2062;50.694;7.246;2024-02-04T09:42:30;10.80;74.70
4097;DHT22;2062;50.694;7.246;2024-02-04T09:44:57;10.80;74.70
4097;DHT22;2062;50.694;7.246;2024-02-04T09:47:24;10.80;74.70
4097;DHT22;2062;50.694;7.246;2024-02-04T09:49:50;10.80;74.60
4097;DHT22;2062;50.694;7.246;2024-02-04T09:52:29;10.80;75.50
4097;DHT22;2062;50.694;7.246;2024-02-04T09:54:59;10.80;74.60
4097;DHT22;2062;50.694;7.246;2024-02-04T09:57:27;10.80;74.70
4097;DHT22;2062;50.694;7.246;2024-02-04T09:59:55;10.80;74.50
4097;DHT22;2062;50.694;7.246;2024-02-04T10:02:22;10.90;74.80
4097;DHT22;2062;50.694;7.246;2024-02-04T10:04:49;10.80;74.70
4097;DHT22;2062;50.694;7.246;2024-02-04T10:07:16;10.90;74.80
4097;DHT22;2062;50.694;7.246;2024-02-04T10:09:45;10.90;74.80
4097;DHT22;2062;50.694;7.246;2024-02-04T10:12:12;10.90;74.90
4097;DHT22;2062;50.694;7.246;2024-02-04T10:14:39;10.90;74.90
4097;DHT22;2062;50.694;7.246;2024-02-04T10:17:06;10.90;75.10
4097;DHT22;2062;50.694;7.246;2024-02-04T10:19:33;11.00;75.00
4097;DHT22;2062;50.694;7.246;2024-02-04T10:22:00;11.00;74.80
4097;DHT22;2062;50.694;7.246;2024-02-04T10:24:27;11.00;74.90
4097;DHT22;2062;50.694;7.246;2024-02-04T10:26:55;11.00;74.60
4097;DHT22;2062;50.694;7.246;2024-02-04T10:29:22;11.00;74.80
4097;DHT22;2062;50.694;7.246;2024-02-04T10:31:53;11.10;74.70
4097;DHT22;2062;50.694;7.246;2024-02-04T10:34:20;11.10;74.60
4097;DHT22;2062;50.694;7.246;2024-02-04T10:36:47;11.10;74.70
4097;DHT22;2062;50.694;7.246;2024-02-04T10:39:13;11.10;74.70
4097;DHT22;2062;50.694;7.246;2024-02-04T10:41:48;11.10;74.60
4097;DHT22;2062;50.694;7.246;2024-02-04T10:44:18;11.10;74.60
4097;DHT22;2062;50.694;7.246;2024-02-04T10:46:47;11.10;74.60
4097;DHT22;2062;50.694;7.246;2024-02-04T10:49:17;11.10;74.70
4097;DHT22;2062;50.694;7.246;2024-02-04T10:51:45;11.20;74.70
4097;DHT22;2062;50.694;7.246;2024-02-04T10:54:15;11.20;74.60
4097;DHT22;2062;50.694;7.246;2024-02-04T10:56:44;11.20;74.60
4097;DHT22;2062;50.694;7.246;2024-02-04T10:59:11;11.30;74.70
4097;DHT22;2062;50.694;7.246;2024-02-04T11:01:40;11.30;74.70
4097;DHT22;2062;50.694;7.246;2024-02-04T11:04:09;11.30;74.60
4097;DHT22;2062;50.694;7.246;2024-02-04T11:06:36;11.30;74.60
4097;DHT22;2062;50.694;7.246;2024-02-04T11:09:04;11.30;74.50
4097;DHT22;2062;50.694;7.246;2024-02-04T11:11:32;11.40;74.50
4097;DHT22;2062;50.694;7.246;2024-02-04T11:14:02;11.40;74.50
4097;DHT22;2062;50.694;7.246;2024-02-04T11:16:44;11.40;74.30
4097;DHT22;2062;50.694;7.246;2024-02-04T11:19:23;11.50;74.40
4097;DHT22;2062;50.694;7.246;2024-02-04T11:22:09;11.50;74.30
4097;DHT22;2062;50.694;7.246;2024-02-04T11:24:54;11.50;74.20
4097;DHT22;2062;50.694;7.246;2024-02-04T11:27:24;11.50;74.00
4097;DHT22;2062;50.694;7.246;2024-02-04T11:29:52;11.50;74.00
4097;DHT22;2062;50.694;7.246;2024-02-04T11:32:20;11.60;74.00
4097;DHT22;2062;50.694;7.246;2024-02-04T11:34:47;11.60;74.00
4097;DHT22;2062;50.694;7.246;2024-02-04T11:37:16;11.60;73.90
4097;DHT22;2062;50.694;7.246;2024-02-04T11:39:51;11.60;73.70
4097;DHT22;2062;50.694;7.246;2024-02-04T11:42:18;11.70;73.70
4097;DHT22;2062;50.694;7.246;2024-02-04T11:44:46;11.60;73.50
4097;DHT22;2062;50.694;7.246;2024-02-04T11:47:24;11.70;73.60
4097;DHT22;2062;50.694;7.246;2024-02-04T11:49:54;11.70;73.60
4097;DHT22;2062;50.694;7.246;2024-02-04T11:52:21;11.70;73.50
4097;DHT22;2062;50.694;7.246;2024-02-04T11:54:48;11.70;73.50
4097;DHT22;2062;50.694;7.246;2024-02-04T11:57:15;11.80;73.40
4097;DHT22;2062;50.694;7.246;2024-02-04T11:59:42;11.70;73.40
4097;DHT22;2062;50.694;7.246;2024-02-04T12:02:10;11.80;73.40
4097;DHT22;2062;50.694;7.246;2024-02-04T12:04:39;11.70;73.20
4097;DHT22;2062;50.694;7.246;2024-02-04T12:07:07;11.70;73.20
4097;DHT22;2062;50.694;7.246;2024-02-04T12:09:34;11.70;73.20
4097;DHT22;2062;50.694;7.246;2024-02-04T12:12:03;11.70;73.20
4097;DHT22;2062;50.694;7.246;2024-02-04T12:14:31;11.70;73.20
4097;DHT22;2062;50.694;7.246;2024-02-04T12:16:58;11.70;73.20
4097;DHT22;2062;50.694;7.246;2024-02-04T12:19:25;11.60;73.00
4097;DHT22;2062;50.694;7.246;2024-02-04T12:21:54;11.70;73.20
4097;DHT22;2062;50.694;7.246;2024-02-04T12:24:21;11.60;73.00
4097;DHT22;2062;50.694;7.246;2024-02-04T12:26:48;11.60;73.00
4097;DHT22;2062;50.694;7.246;2024-02-04T12:29:15;11.60;73.00
4097;DHT22;2062;50.694;7.246;2024-02-04T12:31:42;11.60;73.10
4097;DHT22;2062;50.694;7.246;2024-02-04T12:34:12;11.60;73.20
4097;DHT22;2062;50.694;7.246;2024-02-04T12:36:39;11.60;73.20
4097;DHT22;2062;50.694;7.246;2024-02-04T12:39:10;11.60;73.10
4097;DHT22;2062;50.694;7.246;2024-02-04T12:41:37;11.70;73.20
4097;DHT22;2062;50.694;7.246;2024-02-04T12:44:04;11.60;72.90
4097;DHT22;2062;50.694;7.246;2024-02-04T12:46:31;11.60;72.90
4097;DHT22;2062;50.694;7.246;2024-02-04T12:48:58;11.60;72.80
4097;DHT22;2062;50.694;7.246;2024-02-04T12:51:25;11.70;72.90
4097;DHT22;2062;50.694;7.246;2024-02-04T12:54:03;11.70;73.00
4097;DHT22;2062;50.694;7.246;2024-02-04T12:56:41;11.70;73.00
4097;DHT22;2062;50.694;7.246;2024-02-04T12:59:08;11.70;72.90
4097;DHT22;2062;50.694;7.246;2024-02-04T13:01:36;11.70;72.90
4097;DHT22;2062;50.694;7.246;2024-02-04T13:04:03;11.70;72.90
4097;DHT22;2062;50.694;7.246;2024-02-04T13:06:30;11.80;72.90
4097;DHT22;2062;50.694;7.246;2024-02-04T13:08:57;11.80;72.90
4097;DHT22;2062;50.694;7.246;2024-02-04T13:11:24;11.80;72.80
4097;DHT22;2062;50.694;7.246;2024-02-04T13:13:52;11.80;72.70
4097;DHT22;2062;50.694;7.246;2024-02-04T13:16:19;11.90;72.80
4097;DHT22;2062;50.694;7.246;2024-02-04T13:18:52;11.80;72.50
4097;DHT22;2062;50.694;7.246;2024-02-04T13:21:18;11.90;72.60
4097;DHT22;2062;50.694;7.246;2024-02-04T13:23:47;11.90;73.40
4097;DHT22;2062;50.694;7.246;2024-02-04T13:26:14;11.90;72.50
4097;DHT22;2062;50.694;7.246;2024-02-04T13:28:41;11.90;72.40
4097;DHT22;2062;50.694;7.246;2024-02-04T13:31:09;11.90;72.10
4097;DHT22;2062;50.694;7.246;2024-02-04T13:33:38;11.90;72.20
4097;DHT22;2062;50.694;7.246;2024-02-04T13:36:05;11.90;72.20
4097;DHT22;2062;50.694;7.246;2024-02-04T13:38:32;11.90;72.00
4097;DHT22;2062;50.694;7.246;2024-02-04T13:40:58;11.90;72.10
4097;DHT22;2062;50.694;7.246;2024-02-04T13:43:25;11.90;72.20
4097;DHT22;2062;50.694;7.246;2024-02-04T13:45:52;11.80;72.00
4097;DHT22;2062;50.694;7.246;2024-02-04T13:48:19;11.80;72.00
4097;DHT22;2062;50.694;7.246;2024-02-04T13:50:48;11.90;72.10
4097;DHT22;2062;50.694;7.246;2024-02-04T13:53:14;11.80;72.00
4097;DHT22;2062;50.694;7.246;2024-02-04T13:55:41;11.80;72.00
4097;DHT22;2062;50.694;7.246;2024-02-04T13:58:09;11.80;72.00
4097;DHT22;2062;50.694;7.246;2024-02-04T14:00:35;11.80;71.90
4097;DHT22;2062;50.694;7.246;2024-02-04T14:03:03;11.90;72.00
4097;DHT22;2062;50.694;7.246;2024-02-04T14:05:31;11.70;71.90
4097;DHT22;2062;50.694;7.246;2024-02-04T14:07:57;11.80;71.70
4097;DHT22;2062;50.694;7.246;2024-02-04T14:10:24;11.70;71.70
4097;DHT22;2062;50.694;7.246;2024-02-04T14:12:52;11.70;71.80
4097;DHT22;2062;50.694;7.246;2024-02-04T14:15:18;11.70;71.60
4097;DHT22;2062;50.694;7.246;2024-02-04T14:17:45;11.70;71.60
4097;DHT22;2062;50.694;7.246;2024-02-04T14:20:12;11.70;71.70
4097;DHT22;2062;50.694;7.246;2024-02-04T14:22:40;11.70;71.70
4097;DHT22;2062;50.694;7.246;2024-02-04T14:25:07;11.70;71.70
4097;DHT22;2062;50.694;7.246;2024-02-04T14:27:34;11.70;71.70
4097;DHT22;2062;50.694;7.246;2024-02-04T14:30:02;11.70;71.70
4097;DHT22;2062;50.694;7.246;2024-02-04T14:32:29;11.70;71.80
4097;DHT22;2062;50.694;7.246;2024-02-04T14:34:56;11.70;71.80
4097;DHT22;2062;50.694;7.246;2024-02-04T14:37:23;11.70;71.80
4097;DHT22;2062;50.694;7.246;2024-02-04T14:39:51;11.70;71.80
4097;DHT22;2062;50.694;7.246;2024-02-04T14:42:18;11.70;71.80
4097;DHT22;2062;50.694;7.246;2024-02-04T14:44:45;11.70;71.80
4097;DHT22;2062;50.694;7.246;2024-02-04T14:47:11;11.60;71.60
4097;DHT22;2062;50.694;7.246;2024-02-04T14:49:38;11.60;71.70
4097;DHT22;2062;50.694;7.246;2024-02-04T14:52:05;11.70;71.90
4097;DHT22;2062;50.694;7.246;2024-02-04T14:54:32;11.60;71.70
4097;DHT22;2062;50.694;7.246;2024-02-04T14:57:00;11.60;71.70
4097;DHT22;2062;50.694;7.246;2024-02-04T14:59:26;11.70;71.80
4097;DHT22;2062;50.694;7.246;2024-02-04T15:01:53;11.60;71.70
4097;DHT22;2062;50.694;7.246;2024-02-04T15:04:20;11.60;71.70
4097;DHT22;2062;50.694;7.246;2024-02-04T15:06:47;11.60;71.80
4097;DHT22;2062;50.694;7.246;2024-02-04T15:09:14;11.60;71.80
4097;DHT22;2062;50.694;7.246;2024-02-04T15:11:41;11.60;71.70
4097;DHT22;2062;50.694;7.246;2024-02-04T15:14:10;11.60;71.80
4097;DHT22;2062;50.694;7.246;2024-02-04T15:16:38;11.60;71.70
4097;DHT22;2062;50.694;7.246;2024-02-04T15:19:05;11.60;71.70
4097;DHT22;2062;50.694;7.246;2024-02-04T15:21:33;11.50;71.70
4097;DHT22;2062;50.694;7.246;2024-02-04T15:24:00;11.60;71.70
4097;DHT22;2062;50.694;7.246;2024-02-04T15:26:30;11.60;71.80
4097;DHT22;2062;50.694;7.246;2024-02-04T15:28:57;11.60;71.80
4097;DHT22;2062;50.694;7.246;2024-02-04T15:31:27;11.60;71.60
4097;DHT22;2062;50.694;7.246;2024-02-04T15:33:54;11.60;71.60
4097;DHT22;2062;50.694;7.246;2024-02-04T15:36:21;11.60;71.60
4097;DHT22;2062;50.694;7.246;2024-02-04T15:38:50;11.60;71.50
4097;DHT22;2062;50.694;7.246;2024-02-04T15:41:17;11.50;71.50
4097;DHT22;2062;50.694;7.246;2024-02-04T15:43:43;11.60;71.50
4097;DHT22;2062;50.694;7.246;2024-02-04T15:46:10;11.50;71.50
4097;DHT22;2062;50.694;7.246;2024-02-04T15:48:40;11.50;71.50
4097;DHT22;2062;50.694;7.246;2024-02-04T15:51:09;11.50;71.40
4097;DHT22;2062;50.694;7.246;2024-02-04T15:53:37;11.50;71.30
4097;DHT22;2062;50.694;7.246;2024-02-04T15:56:05;11.50;71.20
4097;DHT22;2062;50.694;7.246;2024-02-04T15:58:34;11.50;71.20
4097;DHT22;2062;50.694;7.246;2024-02-04T16:01:10;11.50;71.10
4097;DHT22;2062;50.694;7.246;2024-02-04T16:03:39;11.50;71.10
4097;DHT22;2062;50.694;7.246;2024-02-04T16:06:08;11.50;71.10